sensor_id;sensor_type;location;lat;lon;timestamp;pressure;altitude;pressure_sealevel;temperature;humidity
16094;BME280;8151;47.824;12.092;2023-03-03T00:01:08;96348.25;;;3.53;74.24
16094;BME280;8151;47.824;12.092;2023-03-03T00:03:37;96354.06;;;3.57;73.78
16094;BME280;8151;47.824;12.092;2023-03-03T00:06:09;96346.94;;;3.59;73.89
16094;BME280;8151;47.824;12.092;2023-03-03T00:08:38;96349.28;;;3.62;73.95
16094;BME280;8151;47.824;12.092;2023-03-03T00:11:08;96349.03;;;3.65;74.02
16094;BME280;8151;47.824;12.092;2023-03-03T00:13:43;96355.91;;;3.66;73.85
16094;BME280;8151;47.824;12.092;2023-03-03T00:16:22;96353.28;;;3.66;73.91
16094;BME280;8151;47.824;12.092;2023-03-03T00:18:52;96358.41;;;3.68;74.08
16094;BME280;8151;47.824;12.092;2023-03-03T00:21:27;96359.13;;;3.70;73.87
16094;BME280;8151;47.824;12.092;2023-03-03T00:24:13;96359.69;;;3.73;73.91
16094;BME280;8151;47.824;12.092;2023-03-03T00:26:44;96358.75;;;3.74;74.22
16094;BME280;8151;47.824;12.092;2023-03-03T00:29:30;96366.59;;;3.74;74.20
16094;BME280;8151;47.824;12.092;2023-03-03T00:32:26;96370.16;;;3.73;74.30
16094;BME280;8151;47.824;12.092;2023-03-03T00:35:00;96365.75;;;3.74;74.23
16094;BME280;8151;47.824;12.092;2023-03-03T00:37:39;96365.75;;;3.74;73.92
16094;BME280;8151;47.824;12.092;2023-03-03T00:40:22;96367.44;;;3.75;74.00
16094;BME280;8151;47.824;12.092;2023-03-03T00:42:52;96366.72;;;3.73;74.17
16094;BME280;8151;47.824;12.092;2023-03-03T00:45:30;96368.38;;;3.74;74.41
16094;BME280;8151;47.824;12.092;2023-03-03T00:48:10;96370.16;;;3.73;74.29
16094;BME280;8151;47.824;12.092;2023-03-03T00:50:44;96365.75;;;3.74;74.41
16094;BME280;8151;47.824;12.092;2023-03-03T00:53:15;96368.50;;;3.72;74.64
16094;BME280;8151;47.824;12.092;2023-03-03T00:55:45;96368.50;;;3.72;74.70
16094;BME280;8151;47.824;12.092;2023-03-03T00:58:15;96366.72;;;3.73;74.29
16094;BME280;8151;47.824;12.092;2023-03-03T01:00:44;96361.50;;;3.73;74.30
16094;BME280;8151;47.824;12.092;2023-03-03T01:03:14;96367.44;;;3.75;74.30
16094;BME280;8151;47.824;12.092;2023-03-03T01:05:43;96363.00;;;3.75;74.73
16094;BME280;8151;47.824;12.092;2023-03-03T01:08:12;96361.63;;;3.71;74.76
16094;BME280;8151;47.824;12.092;2023-03-03T01:10:44;96365.06;;;3.72;74.78
16094;BME280;8151;47.824;12.092;2023-03-03T01:13:13;96360.53;;;3.74;74.82
16094;BME280;8151;47.824;12.092;2023-03-03T01:15:42;96364.94;;;3.73;74.69
16094;BME280;8151;47.824;12.092;2023-03-03T01:18:11;96357.19;;;3.72;74.61
16094;BME280;8151;47.824;12.092;2023-03-03T01:20:39;96355.56;;;3.71;74.81
16094;BME280;8151;47.824;12.092;2023-03-03T01:23:08;96353.06;;;3.69;75.07
16094;BME280;8151;47.824;12.092;2023-03-03T01:25:36;96348.91;;;3.67;74.79
16094;BME280;8151;47.824;12.092;2023-03-03T01:28:08;96349.97;;;3.64;74.93
16094;BME280;8151;47.824;12.092;2023-03-03T01:30:36;96349.16;;;3.64;75.17
16094;BME280;8151;47.824;12.092;2023-03-03T01:33:04;96345.59;;;3.65;74.93
16094;BME280;8151;47.824;12.092;2023-03-03T01:35:33;96347.50;;;3.63;75.18
16094;BME280;8151;47.824;12.092;2023-03-03T01:38:02;96349.16;;;3.64;75.00
16094;BME280;8151;47.824;12.092;2023-03-03T01:40:31;96353.28;;;3.66;75.40
16094;BME280;8151;47.824;12.092;2023-03-03T01:43:00;96354.28;;;3.65;75.41
16094;BME280;8151;47.824;12.092;2023-03-03T01:45:31;96347.94;;;3.68;75.24
16094;BME280;8151;47.824;12.092;2023-03-03T01:48:20;96347.72;;;3.71;75.30
16094;BME280;8151;47.824;12.092;2023-03-03T01:50:55;96342.34;;;3.72;75.35
16094;BME280;8151;47.824;12.092;2023-03-03T01:53:29;96345.09;;;3.71;75.33
16094;BME280;8151;47.824;12.092;2023-03-03T01:56:02;96348.53;;;3.71;75.41
16094;BME280;8151;47.824;12.092;2023-03-03T01:58:33;96344.97;;;3.72;75.51
16094;BME280;8151;47.824;12.092;2023-03-03T02:01:04;96335.44;;;3.71;75.53
16094;BME280;8151;47.824;12.092;2023-03-03T02:03:36;96337.13;;;3.72;75.28
16094;BME280;8151;47.824;12.092;2023-03-03T02:06:07;96337.94;;;3.73;75.21
16094;BME280;8151;47.824;12.092;2023-03-03T02:08:42;96336.84;;;3.75;75.33
16094;BME280;8151;47.824;12.092;2023-03-03T02:11:12;96334.94;;;3.78;75.55
16094;BME280;8151;47.824;12.092;2023-03-03T02:13:42;96338.66;;;3.75;75.23
16094;BME280;8151;47.824;12.092;2023-03-03T02:16:10;96338.75;;;3.73;75.45
16094;BME280;8151;47.824;12.092;2023-03-03T02:18:40;96337.81;;;3.74;75.37
16094;BME280;8151;47.824;12.092;2023-03-03T02:21:10;96344.00;;;3.73;75.33
16094;BME280;8151;47.824;12.092;2023-03-03T02:23:45;96344.69;;;3.75;75.70
16094;BME280;8151;47.824;12.092;2023-03-03T02:26:20;96343.63;;;3.78;75.73
16094;BME280;8151;47.824;12.092;2023-03-03T02:28:50;96341.72;;;3.80;75.38
16094;BME280;8151;47.824;12.092;2023-03-03T02:31:20;96340.88;;;3.80;75.38
16094;BME280;8151;47.824;12.092;2023-03-03T02:33:51;96341.84;;;3.79;75.86
16094;BME280;8151;47.824;12.092;2023-03-03T02:36:21;96336.97;;;3.74;75.71
16094;BME280;8151;47.824;12.092;2023-03-03T02:38:55;96338.75;;;3.73;75.73
16094;BME280;8151;47.824;12.092;2023-03-03T02:41:32;96338.75;;;3.73;76.16
16094;BME280;8151;47.824;12.092;2023-03-03T02:44:04;96344.69;;;3.75;76.02
16094;BME280;8151;47.824;12.092;2023-03-03T02:46:35;96343.41;;;3.70;76.06
16094;BME280;8151;47.824;12.092;2023-03-03T02:49:05;96351.03;;;3.73;75.64
16094;BME280;8151;47.824;12.092;2023-03-03T02:51:34;96344.56;;;3.77;75.94
16094;BME280;8151;47.824;12.092;2023-03-03T02:54:03;96347.78;;;3.81;75.96
16094;BME280;8151;47.824;12.092;2023-03-03T02:56:34;96340.88;;;3.80;75.79
16094;BME280;8151;47.824;12.092;2023-03-03T02:59:03;96338.41;;;3.78;75.55
16094;BME280;8151;47.824;12.092;2023-03-03T03:01:32;96336.50;;;3.80;75.69
16094;BME280;8151;47.824;12.092;2023-03-03T03:04:06;96336.22;;;3.83;75.92
16094;BME280;8151;47.824;12.092;2023-03-03T03:06:35;96334.41;;;3.84;75.74
16094;BME280;8151;47.824;12.092;2023-03-03T03:09:06;96329.06;;;3.85;76.05
16094;BME280;8151;47.824;12.092;2023-03-03T03:11:37;96330.84;;;3.85;75.83
16094;BME280;8151;47.824;12.092;2023-03-03T03:14:07;96327.53;;;3.83;75.87
16094;BME280;8151;47.824;12.092;2023-03-03T03:16:39;96328.63;;;3.80;75.95
16094;BME280;8151;47.824;12.092;2023-03-03T03:19:08;96325.03;;;3.81;76.05
16094;BME280;8151;47.824;12.092;2023-03-03T03:21:36;96333.00;;;3.80;76.42
16094;BME280;8151;47.824;12.092;2023-03-03T03:24:05;96332.44;;;3.76;76.11
16094;BME280;8151;47.824;12.092;2023-03-03T03:26:34;96323.63;;;3.77;76.29
16094;BME280;8151;47.824;12.092;2023-03-03T03:29:04;96328.63;;;3.80;76.52
16094;BME280;8151;47.824;12.092;2023-03-03T03:31:33;96330.16;;;3.83;76.42
16094;BME280;8151;47.824;12.092;2023-03-03T03:34:02;96324.94;;;3.83;76.30
16094;BME280;8151;47.824;12.092;2023-03-03T03:36:30;96328.25;;;3.85;76.63
16094;BME280;8151;47.824;12.092;2023-03-03T03:38:58;96335.00;;;3.87;76.11
16094;BME280;8151;47.824;12.092;2023-03-03T03:41:28;96335.84;;;3.88;76.03
16094;BME280;8151;47.824;12.092;2023-03-03T03:43:57;96335.84;;;3.88;76.38
16094;BME280;8151;47.824;12.092;2023-03-03T03:46:27;96341.22;;;3.86;76.27
16094;BME280;8151;47.824;12.092;2023-03-03T03:48:55;96341.56;;;3.82;76.19
16094;BME280;8151;47.824;12.092;2023-03-03T03:51:23;96340.75;;;3.81;76.82
16094;BME280;8151;47.824;12.092;2023-03-03T03:53:52;96342.28;;;3.84;76.85
16094;BME280;8151;47.824;12.092;2023-03-03T03:56:20;96341.44;;;3.83;76.44
16094;BME280;8151;47.824;12.092;2023-03-03T03:58:48;96340.50;;;3.84;76.84
16094;BME280;8151;47.824;12.092;2023-03-03T04:01:16;96343.25;;;3.83;76.34
16094;BME280;8151;47.824;12.092;2023-03-03T04:03:48;96341.13;;;3.77;76.53
16094;BME280;8151;47.824;12.092;2023-03-03T04:06:17;96345.41;;;3.78;76.78
16094;BME280;8151;47.824;12.092;2023-03-03T04:08:45;96336.59;;;3.79;76.43
16094;BME280;8151;47.824;12.092;2023-03-03T04:11:13;96346.81;;;3.82;76.39
16094;BME280;8151;47.824;12.092;2023-03-03T04:13:42;96344.06;;;3.83;76.97
16094;BME280;8151;47.824;12.092;2023-03-03T04:16:10;96340.50;;;3.84;76.77
16094;BME280;8151;47.824;12.092;2023-03-03T04:18:40;96328.25;;;3.85;76.32
16094;BME280;8151;47.824;12.092;2023-03-03T04:21:14;96330.63;;;3.88;76.86
16094;BME280;8151;47.824;12.092;2023-03-03T04:23:43;96338.19;;;3.91;76.82
16094;BME280;8151;47.824;12.092;2023-03-03T04:26:11;96337.09;;;3.93;76.37
16094;BME280;8151;47.824;12.092;2023-03-03T04:28:39;96338.78;;;3.94;76.50
16094;BME280;8151;47.824;12.092;2023-03-03T04:31:08;96340.44;;;3.96;76.31
16094;BME280;8151;47.824;12.092;2023-03-03T04:33:36;96346.38;;;3.98;76.54
16094;BME280;8151;47.824;12.092;2023-03-03T04:36:05;96338.66;;;3.96;76.65
16094;BME280;8151;47.824;12.092;2023-03-03T04:38:35;96338.66;;;3.96;76.17
16094;BME280;8151;47.824;12.092;2023-03-03T04:41:03;96350.78;;;3.97;76.37
16094;BME280;8151;47.824;12.092;2023-03-03T04:43:32;96350.53;;;4.00;76.32
16094;BME280;8151;47.824;12.092;2023-03-03T04:46:00;96353.97;;;4.01;76.61
16094;BME280;8151;47.824;12.092;2023-03-03T04:48:29;96356.47;;;4.02;76.68
16094;BME280;8151;47.824;12.092;2023-03-03T04:50:57;96355.63;;;4.02;76.41
16094;BME280;8151;47.824;12.092;2023-03-03T04:53:25;96359.19;;;4.01;76.71
16094;BME280;8151;47.824;12.092;2023-03-03T04:55:55;96352.31;;;4.00;76.38
16094;BME280;8151;47.824;12.092;2023-03-03T04:58:24;96356.47;;;4.02;76.54
16094;BME280;8151;47.824;12.092;2023-03-03T05:00:53;96357.16;;;4.04;76.63
16094;BME280;8151;47.824;12.092;2023-03-03T05:03:22;96365.03;;;4.04;76.25
16094;BME280;8151;47.824;12.092;2023-03-03T05:05:51;96360.75;;;4.03;76.53
16094;BME280;8151;47.824;12.092;2023-03-03T05:08:19;96362.41;;;4.04;76.86
16094;BME280;8151;47.824;12.092;2023-03-03T05:10:50;96362.66;;;4.01;76.83
16094;BME280;8151;47.824;12.092;2023-03-03T05:13:21;96364.44;;;4.01;77.01
16094;BME280;8151;47.824;12.092;2023-03-03T05:15:50;96373.97;;;4.02;77.01
16094;BME280;8151;47.824;12.092;2023-03-03T05:18:18;96370.38;;;4.03;77.17
16094;BME280;8151;47.824;12.092;2023-03-03T05:20:48;96372.88;;;4.04;76.73
16094;BME280;8151;47.824;12.092;2023-03-03T05:23:17;96357.16;;;4.04;76.67
16094;BME280;8151;47.824;12.092;2023-03-03T05:25:46;96359.09;;;4.02;77.18
16094;BME280;8151;47.824;12.092;2023-03-03T05:28:15;96354.25;;;3.98;76.80
16094;BME280;8151;47.824;12.092;2023-03-03T05:30:45;96351.88;;;3.94;76.89
16094;BME280;8151;47.824;12.092;2023-03-03T05:33:15;96358.44;;;3.89;77.26
16094;BME280;8151;47.824;12.092;2023-03-03T05:35:44;96357.97;;;3.84;77.49
16094;BME280;8151;47.824;12.092;2023-03-03T05:38:14;96357.28;;;3.82;77.77
16094;BME280;8151;47.824;12.092;2023-03-03T05:40:43;96366.91;;;3.81;77.12
16094;BME280;8151;47.824;12.092;2023-03-03T05:43:11;96360.16;;;3.79;77.75
16094;BME280;8151;47.824;12.092;2023-03-03T05:45:42;96367.31;;;3.77;77.77
16094;BME280;8151;47.824;12.092;2023-03-03T05:48:12;96370.16;;;3.73;77.69
16094;BME280;8151;47.824;12.092;2023-03-03T05:50:40;96366.34;;;3.78;77.65
16094;BME280;8151;47.824;12.092;2023-03-03T05:53:09;96375.88;;;3.79;77.37
16094;BME280;8151;47.824;12.092;2023-03-03T05:55:37;96366.34;;;3.78;78.10
16094;BME280;8151;47.824;12.092;2023-03-03T05:58:06;96373.13;;;3.80;77.97
16094;BME280;8151;47.824;12.092;2023-03-03T06:00:34;96370.63;;;3.79;77.70
16094;BME280;8151;47.824;12.092;2023-03-03T06:03:04;96372.28;;;3.80;77.63
16094;BME280;8151;47.824;12.092;2023-03-03T06:05:34;96379.75;;;3.84;77.59
16094;BME280;8151;47.824;12.092;2023-03-03T06:08:03;96377.03;;;3.86;77.61
16094;BME280;8151;47.824;12.092;2023-03-03T06:10:31;96382.13;;;3.87;77.81
16094;BME280;8151;47.824;12.092;2023-03-03T06:12:59;96373.25;;;3.79;77.93
16094;BME280;8151;47.824;12.092;2023-03-03T06:15:28;96376.22;;;3.74;77.90
16094;BME280;8151;47.824;12.092;2023-03-03T06:17:56;96377.19;;;3.73;77.71
16094;BME280;8151;47.824;12.092;2023-03-03T06:20:24;96379.41;;;3.78;77.87
16094;BME280;8151;47.824;12.092;2023-03-03T06:22:54;96388.25;;;3.77;78.38
16094;BME280;8151;47.824;12.092;2023-03-03T06:25:23;96397.75;;;3.78;77.95
16094;BME280;8151;47.824;12.092;2023-03-03T06:27:51;96401.22;;;3.78;78.26
16094;BME280;8151;47.824;12.092;2023-03-03T06:30:20;96395.81;;;3.80;77.91
16094;BME280;8151;47.824;12.092;2023-03-03T06:32:48;96400.25;;;3.79;78.00
16094;BME280;8151;47.824;12.092;2023-03-03T06:35:17;96399.16;;;3.82;78.15
16094;BME280;8151;47.824;12.092;2023-03-03T06:37:45;96403.31;;;3.84;78.27
16094;BME280;8151;47.824;12.092;2023-03-03T06:40:18;96412.56;;;3.88;78.27
16094;BME280;8151;47.824;12.092;2023-03-03T06:42:46;96410.19;;;3.85;78.12
16094;BME280;8151;47.824;12.092;2023-03-03T06:45:15;96422.34;;;3.86;78.11
16094;BME280;8151;47.824;12.092;2023-03-03T06:47:44;96415.31;;;3.87;78.06
16094;BME280;8151;47.824;12.092;2023-03-03T06:50:12;96423.03;;;3.88;78.22
16094;BME280;8151;47.824;12.092;2023-03-03T06:52:44;96416.41;;;3.84;78.20
16094;BME280;8151;47.824;12.092;2023-03-03T06:55:17;96423.16;;;3.87;78.05
16094;BME280;8151;47.824;12.092;2023-03-03T06:57:49;96424.69;;;3.89;78.33
16094;BME280;8151;47.824;12.092;2023-03-03T07:00:23;96429.69;;;3.92;77.85
16094;BME280;8151;47.824;12.092;2023-03-03T07:02:57;96432.91;;;3.96;78.31
16094;BME280;8151;47.824;12.092;2023-03-03T07:05:27;96427.38;;;3.99;78.24
16094;BME280;8151;47.824;12.092;2023-03-03T07:07:56;96434.19;;;4.02;78.40
16094;BME280;8151;47.824;12.092;2023-03-03T07:10:26;96432.38;;;4.02;78.12
16094;BME280;8151;47.824;12.092;2023-03-03T07:13:01;96435.94;;;4.01;77.94
16094;BME280;8151;47.824;12.092;2023-03-03T07:15:39;96433.22;;;4.03;77.88
16094;BME280;8151;47.824;12.092;2023-03-03T07:21:12;96445.72;;;3.99;78.49
16094;BME280;8151;47.824;12.092;2023-03-03T07:23:43;96453.56;;;3.99;78.49
16094;BME280;8151;47.824;12.092;2023-03-03T07:26:14;96444.88;;;3.99;78.39
16094;BME280;8151;47.824;12.092;2023-03-03T07:28:51;96444.78;;;4.00;78.56
16094;BME280;8151;47.824;12.092;2023-03-03T07:31:29;96449.03;;;4.01;77.98
16094;BME280;8151;47.824;12.092;2023-03-03T07:33:59;96449.78;;;4.03;78.47
16094;BME280;8151;47.824;12.092;2023-03-03T07:36:30;96448.78;;;4.04;78.69
16094;BME280;8151;47.824;12.092;2023-03-03T07:39:20;96450.59;;;4.04;78.03
16094;BME280;8151;47.824;12.092;2023-03-03T07:41:51;96448.09;;;4.02;78.42
16094;BME280;8151;47.824;12.092;2023-03-03T07:44:29;96454.84;;;4.05;78.53
16094;BME280;8151;47.824;12.092;2023-03-03T07:47:14;96453.91;;;4.06;78.21
16094;BME280;8151;47.824;12.092;2023-03-03T07:49:45;96465.91;;;4.08;78.67
16094;BME280;8151;47.824;12.092;2023-03-03T07:52:38;96460.69;;;4.08;78.46
16094;BME280;8151;47.824;12.092;2023-03-03T07:55:22;96470.72;;;4.03;78.85
16094;BME280;8151;47.824;12.092;2023-03-03T07:57:53;96470.72;;;4.03;78.43
16094;BME280;8151;47.824;12.092;2023-03-03T08:03:43;96475.69;;;4.06;78.46
16094;BME280;8151;47.824;12.092;2023-03-03T08:09:35;96473.25;;;4.14;78.82
16094;BME280;8151;47.824;12.092;2023-03-03T08:12:37;96477.16;;;4.20;78.24
16094;BME280;8151;47.824;12.092;2023-03-03T08:15:20;96475.13;;;4.24;78.28
16094;BME280;8151;47.824;12.092;2023-03-03T08:17:51;96483.56;;;4.27;78.00
16094;BME280;8151;47.824;12.092;2023-03-03T08:20:45;96477.81;;;4.33;78.14
16094;BME280;8151;47.824;12.092;2023-03-03T08:23:15;96482.69;;;4.38;78.00
16094;BME280;8151;47.824;12.092;2023-03-03T08:25:46;96486.84;;;4.41;77.85
16094;BME280;8151;47.824;12.092;2023-03-03T08:28:15;96485.06;;;4.41;77.82
16094;BME280;8151;47.824;12.092;2023-03-03T08:30:44;96483.13;;;4.43;78.53
16094;BME280;8151;47.824;12.092;2023-03-03T08:33:14;96482.31;;;4.43;78.36
16094;BME280;8151;47.824;12.092;2023-03-03T08:35:43;96489.19;;;4.44;78.28
16094;BME280;8151;47.824;12.092;2023-03-03T08:38:15;96487.28;;;4.46;78.17
16094;BME280;8151;47.824;12.092;2023-03-03T08:40:45;96487.84;;;4.49;78.32
16094;BME280;8151;47.824;12.092;2023-03-03T08:43:14;96478.06;;;4.51;78.21
16094;BME280;8151;47.824;12.092;2023-03-03T08:45:43;96491.88;;;4.53;78.41
16094;BME280;8151;47.824;12.092;2023-03-03T08:48:13;96482.13;;;4.56;78.22
16094;BME280;8151;47.824;12.092;2023-03-03T08:50:42;96481.97;;;4.57;78.64
16094;BME280;8151;47.824;12.092;2023-03-03T08:53:13;96488.78;;;4.60;78.36
16094;BME280;8151;47.824;12.092;2023-03-03T08:55:42;96490.31;;;4.62;78.27
16094;BME280;8151;47.824;12.092;2023-03-03T08:58:11;96491.81;;;4.65;78.49
16094;BME280;8151;47.824;12.092;2023-03-03T09:00:39;96487.28;;;4.67;78.17
16094;BME280;8151;47.824;12.092;2023-03-03T09:03:08;96491.31;;;4.71;78.52
16094;BME280;8151;47.824;12.092;2023-03-03T09:05:38;96485.81;;;4.74;78.07
16094;BME280;8151;47.824;12.092;2023-03-03T09:08:07;96483.91;;;4.76;77.93
16094;BME280;8151;47.824;12.092;2023-03-03T09:10:38;96481.97;;;4.78;78.38
16094;BME280;8151;47.824;12.092;2023-03-03T09:13:12;96478.25;;;4.81;78.11
16094;BME280;8151;47.824;12.092;2023-03-03T09:15:42;96484.06;;;4.84;78.28
16094;BME280;8151;47.824;12.092;2023-03-03T09:18:15;96489.06;;;4.87;77.75
16094;BME280;8151;47.824;12.092;2023-03-03T09:20:45;96483.69;;;4.89;78.24
16094;BME280;8151;47.824;12.092;2023-03-03T09:23:33;96492.28;;;4.91;78.32
16094;BME280;8151;47.824;12.092;2023-03-03T09:26:30;96495.47;;;4.95;78.32
16094;BME280;8151;47.824;12.092;2023-03-03T09:29:18;96488.59;;;5.03;78.47
16094;BME280;8151;47.824;12.092;2023-03-03T09:31:52;96500.09;;;5.12;78.05
16094;BME280;8151;47.824;12.092;2023-03-03T09:34:24;96500.66;;;5.16;78.17
16094;BME280;8151;47.824;12.092;2023-03-03T09:36:54;96496.13;;;5.18;78.17
16094;BME280;8151;47.824;12.092;2023-03-03T09:39:29;96501.91;;;5.21;78.10
16094;BME280;8151;47.824;12.092;2023-03-03T09:45:21;96501.25;;;5.29;78.75
16094;BME280;8151;47.824;12.092;2023-03-03T09:48:18;96508.63;;;5.35;78.43
16094;BME280;8151;47.824;12.092;2023-03-03T09:50:58;96512.50;;;5.41;78.24
16094;BME280;8151;47.824;12.092;2023-03-03T09:53:41;96510.44;;;5.44;78.57
16094;BME280;8151;47.824;12.092;2023-03-03T09:56:16;96510.19;;;5.47;78.95
16094;BME280;8151;47.824;12.092;2023-03-03T09:58:54;96512.41;;;5.52;78.53
16094;BME280;8151;47.824;12.092;2023-03-03T10:01:41;96511.03;;;5.58;78.27
16094;BME280;8151;47.824;12.092;2023-03-03T10:04:31;96524.59;;;5.63;78.69
16094;BME280;8151;47.824;12.092;2023-03-03T10:07:17;96524.06;;;5.69;78.49
16094;BME280;8151;47.824;12.092;2023-03-03T10:10:02;96527.13;;;5.74;78.46
16094;BME280;8151;47.824;12.092;2023-03-03T10:12:38;96528.53;;;5.78;78.18
16094;BME280;8151;47.824;12.092;2023-03-03T10:15:20;96514.53;;;5.78;79.01
16094;BME280;8151;47.824;12.092;2023-03-03T10:18:01;96525.75;;;5.80;78.67
16094;BME280;8151;47.824;12.092;2023-03-03T10:20:40;96519.13;;;5.85;78.65
16094;BME280;8151;47.824;12.092;2023-03-03T10:23:20;96528.25;;;5.91;78.98
16094;BME280;8151;47.824;12.092;2023-03-03T10:26:06;96521.53;;;5.98;78.29
16094;BME280;8151;47.824;12.092;2023-03-03T10:29:00;96523.63;;;6.04;78.30
16094;BME280;8151;47.824;12.092;2023-03-03T10:31:39;96528.47;;;6.09;78.09
16094;BME280;8151;47.824;12.092;2023-03-03T10:34:23;96524.75;;;6.11;78.57
16094;BME280;8151;47.824;12.092;2023-03-03T10:36:58;96535.69;;;6.17;78.26
16094;BME280;8151;47.824;12.092;2023-03-03T10:39:39;96534.97;;;6.15;78.18
16094;BME280;8151;47.824;12.092;2023-03-03T10:42:24;96530.00;;;6.11;78.26
16094;BME280;8151;47.824;12.092;2023-03-03T10:45:09;96533.88;;;6.17;78.16
16094;BME280;8151;47.824;12.092;2023-03-03T10:47:52;96535.13;;;6.23;78.33
16094;BME280;8151;47.824;12.092;2023-03-03T10:50:33;96531.53;;;6.34;77.81
16094;BME280;8151;47.824;12.092;2023-03-03T10:53:17;96543.84;;;6.43;77.71
16094;BME280;8151;47.824;12.092;2023-03-03T10:55:56;96540.53;;;6.50;77.47
16094;BME280;8151;47.824;12.092;2023-03-03T10:58:52;96541.91;;;6.55;77.57
16094;BME280;8151;47.824;12.092;2023-03-03T11:01:31;96532.06;;;6.57;77.59
16094;BME280;8151;47.824;12.092;2023-03-03T11:07:02;96542.47;;;6.68;77.34
16094;BME280;8151;47.824;12.092;2023-03-03T11:09:43;96538.56;;;6.72;77.05
16094;BME280;8151;47.824;12.092;2023-03-03T11:12:26;96541.19;;;6.72;77.03
16094;BME280;8151;47.824;12.092;2023-03-03T11:15:10;96539.97;;;6.66;76.80
16094;BME280;8151;47.824;12.092;2023-03-03T11:17:56;96535.56;;;6.67;77.17
16094;BME280;8151;47.824;12.092;2023-03-03T11:20:35;96537.47;;;6.75;77.01
16094;BME280;8151;47.824;12.092;2023-03-03T11:23:20;96538.00;;;6.78;76.95
16094;BME280;8151;47.824;12.092;2023-03-03T11:25:56;96530.53;;;6.83;76.45
16094;BME280;8151;47.824;12.092;2023-03-03T11:28:52;96529.28;;;6.87;76.26
16094;BME280;8151;47.824;12.092;2023-03-03T11:31:27;96528.72;;;6.94;76.14
16094;BME280;8151;47.824;12.092;2023-03-03T11:34:04;96535.06;;;7.01;76.29
16094;BME280;8151;47.824;12.092;2023-03-03T11:36:47;96528.56;;;7.05;75.96
16094;BME280;8151;47.824;12.092;2023-03-03T11:39:21;96532.41;;;7.10;75.99
16094;BME280;8151;47.824;12.092;2023-03-03T11:42:01;96529.78;;;7.10;76.00
16094;BME280;8151;47.824;12.092;2023-03-03T11:44:35;96521.63;;;7.14;76.07
16094;BME280;8151;47.824;12.092;2023-03-03T11:47:11;96513.28;;;7.18;75.92
16094;BME280;8151;47.824;12.092;2023-03-03T11:49:46;96508.56;;;7.22;75.73
16094;BME280;8151;47.824;12.092;2023-03-03T11:52:23;96508.28;;;7.25;75.74
16094;BME280;8151;47.824;12.092;2023-03-03T11:55:00;96513.81;;;7.32;75.52
16094;BME280;8151;47.824;12.092;2023-03-03T11:57:34;96510.31;;;7.41;75.69
16094;BME280;8151;47.824;12.092;2023-03-03T12:00:17;96498.78;;;7.42;75.59
16094;BME280;8151;47.824;12.092;2023-03-03T12:03:10;96502.66;;;7.47;75.25
16094;BME280;8151;47.824;12.092;2023-03-03T12:05:49;96502.50;;;7.49;75.45
16094;BME280;8151;47.824;12.092;2023-03-03T12:08:44;96503.63;;;7.46;75.42
16094;BME280;8151;47.824;12.092;2023-03-03T12:11:25;96497.53;;;7.46;75.53
16094;BME280;8151;47.824;12.092;2023-03-03T12:13:57;96495.00;;;7.54;75.30
16094;BME280;8151;47.824;12.092;2023-03-03T12:16:41;96493.75;;;7.58;75.02
16094;BME280;8151;47.824;12.092;2023-03-03T12:19:31;96490.56;;;7.55;75.24
16094;BME280;8151;47.824;12.092;2023-03-03T12:22:10;96481.41;;;7.59;75.25
16094;BME280;8151;47.824;12.092;2023-03-03T12:24:57;96484.25;;;7.65;74.94
16094;BME280;8151;47.824;12.092;2023-03-03T12:27:35;96485.25;;;7.64;75.14
16094;BME280;8151;47.824;12.092;2023-03-03T12:30:19;96484.13;;;7.67;75.02
16094;BME280;8151;47.824;12.092;2023-03-03T12:32:58;96488.13;;;7.71;74.78
16094;BME280;8151;47.824;12.092;2023-03-03T12:35:33;96478.13;;;7.75;74.81
16094;BME280;8151;47.824;12.092;2023-03-03T12:38:16;96473.00;;;7.73;74.74
16094;BME280;8151;47.824;12.092;2023-03-03T12:40:54;96470.00;;;7.86;74.51
16094;BME280;8151;47.824;12.092;2023-03-03T12:43:38;96474.94;;;7.99;74.25
16094;BME280;8151;47.824;12.092;2023-03-03T12:46:16;96457.25;;;8.09;74.38
16094;BME280;8151;47.824;12.092;2023-03-03T12:48:55;96460.69;;;8.09;74.08
16094;BME280;8151;47.824;12.092;2023-03-03T12:51:32;96461.91;;;7.97;74.20
16094;BME280;8151;47.824;12.092;2023-03-03T12:54:30;96470.09;;;7.94;74.22
16094;BME280;8151;47.824;12.092;2023-03-03T12:57:12;96458.28;;;7.98;74.37
16094;BME280;8151;47.824;12.092;2023-03-03T12:59:53;96471.31;;;8.00;74.17
16094;BME280;8151;47.824;12.092;2023-03-03T13:02:38;96481.38;;;8.04;74.02
16094;BME280;8151;47.824;12.092;2023-03-03T13:05:18;96476.03;;;8.14;74.17
16094;BME280;8151;47.824;12.092;2023-03-03T13:07:54;96467.09;;;8.25;73.85
16094;BME280;8151;47.824;12.092;2023-03-03T13:10:30;96468.69;;;8.36;73.74
16094;BME280;8151;47.824;12.092;2023-03-03T13:13:09;96469.94;;;8.41;73.78
16094;BME280;8151;47.824;12.092;2023-03-03T13:15:43;96471.31;;;8.36;73.47
16094;BME280;8151;47.824;12.092;2023-03-03T13:18:29;96461.44;;;8.38;73.48
16094;BME280;8151;47.824;12.092;2023-03-03T13:21:05;96468.63;;;8.45;73.46
16094;BME280;8151;47.824;12.092;2023-03-03T13:23:42;96468.16;;;8.50;73.13
16094;BME280;8151;47.824;12.092;2023-03-03T13:26:17;96469.38;;;8.56;73.01
16094;BME280;8151;47.824;12.092;2023-03-03T13:28:57;96467.78;;;8.63;72.99
16094;BME280;8151;47.824;12.092;2023-03-03T13:31:32;96460.22;;;8.68;72.74
16094;BME280;8151;47.824;12.092;2023-03-03T13:34:02;96460.84;;;8.62;72.90
16094;BME280;8151;47.824;12.092;2023-03-03T13:36:39;96452.88;;;8.54;72.91
16094;BME280;8151;47.824;12.092;2023-03-03T13:39:13;96458.66;;;8.57;72.92
16094;BME280;8151;47.824;12.092;2023-03-03T13:41:48;96458.66;;;8.57;72.64
16094;BME280;8151;47.824;12.092;2023-03-03T13:44:24;96458.66;;;8.57;72.71
16094;BME280;8151;47.824;12.092;2023-03-03T13:47:05;96452.53;;;8.57;73.09
16094;BME280;8151;47.824;12.092;2023-03-03T13:49:54;96450.13;;;8.63;72.83
16094;BME280;8151;47.824;12.092;2023-03-03T13:52:27;96452.81;;;8.72;72.20
16094;BME280;8151;47.824;12.092;2023-03-03T13:55:10;96450.66;;;8.67;72.08
16094;BME280;8151;47.824;12.092;2023-03-03T13:57:58;96451.47;;;8.67;72.60
16094;BME280;8151;47.824;12.092;2023-03-03T14:00:35;96439.63;;;8.72;72.30
16094;BME280;8151;47.824;12.092;2023-03-03T14:03:24;96442.59;;;8.69;72.06